Time;durP1;ratioP1;P1;durP2;ratioP2;P2;SDS_P1;SDS_P2;PMS_P1;PMS_P2;Temp;Humidity;BMP_temperature;BMP_pressure;BME280_temperature;BME280_humidity;BME280_pressure;Samples;Min_cycle;Max_cycle;Signal;HPM_P1;HPM_P2
2022/05/18 00:00:21;;;;;;;;;;;;;;;;;;5012566;28;783;-72
2022/05/18 00:02:47;;;;;;;;;;;;;;;;;;5012101;28;1099;-72
2022/05/18 00:05:14;;;;;;;;;;;;;;;;;;5010696;28;1979;-71
2022/05/18 00:07:40;;;;;;;;;;;;;;;;;;5011894;28;937;-71
2022/05/18 00:10:07;;;;;;;;;;;;;;;;;;5012073;28;1075;-71
2022/05/18 00:12:33;;;;;;;;;;;;;;;;;;5012003;28;992;-71
2022/05/18 00:14:59;;;;;;;;;;;;;;;;;;5010498;28;1398;-71
2022/05/18 00:17:27;;;;;;;;;;;;;;;;;;5011850;28;1108;-71
2022/05/18 00:19:53;;;;;;;;;;;;;;;;;;5011898;28;1181;-71
2022/05/18 00:22:20;;;;;;;;;;;;;;;;;;5010653;28;1135;-72
2022/05/18 00:24:46;;;;;;;;;;;;;;;;;;5011692;28;1910;-70
2022/05/18 00:27:12;;;;;;;;;;;;;;;;;;5011627;28;1076;-71
2022/05/18 00:29:38;;;;;;;;;;;;;;;;;;5010793;28;1188;-71
2022/05/18 00:32:05;;;;;;;;;;;;;;;;;;5011624;28;1060;-72
2022/05/18 00:34:32;;;;;;;;;;;;;;;;;;5011361;28;1299;-72
2022/05/18 00:36:58;;;;;;;;;;;;;;;;;;5011151;28;981;-72
2022/05/18 00:39:24;;;;;;;;;;;;;;;;;;5012007;28;1075;-71
2022/05/18 00:41:50;;;;;;;;;;;;;;;;;;5010288;28;1365;-71
2022/05/18 00:44:17;;;;;;;;;;;;;;;;;;5011548;28;1282;-71
2022/05/18 00:46:43;;;;;;;;;;;;;;;;;;5011153;28;1922;-72
2022/05/18 00:49:09;;;;;;;;;;;;;;;;;;5011471;28;804;-71
2022/05/18 00:51:38;;;;;;;;;;;;;;;;;;5010273;28;1333;-71
2022/05/18 00:54:06;;;;;;;;;;;;;;;;;;5010719;28;1407;-71
2022/05/18 00:56:33;;;;;;;;;;;;;;;;;;5011206;28;1071;-71
2022/05/18 00:59:00;;;;;;;;;;;;;;;;;;5010971;28;830;-71
2022/05/18 01:01:26;;;;;;;;;;;;;;;;;;5011391;28;735;-71
2022/05/18 01:03:53;;;;;;;;;;;;;;;;;;5011247;28;1317;-71
2022/05/18 01:06:21;;;;;;;;;;;;;;;;;;5011106;28;1910;-71
2022/05/18 01:08:50;;;;;;;;;;;;;;;;;;5011541;28;1107;-71
2022/05/18 01:11:17;;;;;;;;;;;;;;;;;;5009722;28;954;-71
2022/05/18 01:13:43;;;;;;;;;;;;;;;;;;5010720;28;1298;-71
2022/05/18 01:16:09;;;;;;;;;;;;;;;;;;5010803;28;914;-70
2022/05/18 01:18:35;;;;;;;;;;;;;;;;;;5011179;28;1131;-71
2022/05/18 01:21:01;;;;;;;;;;;;;;;;;;5010700;28;774;-70
2022/05/18 01:23:39;;;;;;;;;;;;;;;;;;5010804;28;1399;-70
2022/05/18 01:26:13;;;;;;;;;;;;;;;;;;5010606;28;1914;-71
2022/05/18 01:28:41;;;;;;;;;;;;;;;;;;5010807;28;1060;-71
2022/05/18 01:31:08;;;;;;;;;;;;;;;;;;5010821;28;949;-72
2022/05/18 01:33:34;;;;;;;;;;;;;;;;;;5010714;28;1406;-72
2022/05/18 01:36:00;;;;;;;;;;;;;;;;;;5010928;28;1130;-71
2022/05/18 01:38:26;;;;;;;;;;;;;;;;;;5010550;28;1056;-71
2022/05/18 01:40:55;;;;;;;;;;;;;;;;;;5009530;28;1387;-72
2022/05/18 01:43:22;;;;;;;;;;;;;;;;;;5009335;28;1580;-71
2022/05/18 01:45:51;;;;;;;;;;;;;;;;;;5009396;28;1918;-71
2022/05/18 01:48:18;;;;;;;;;;;;;;;;;;5010410;28;1068;-71
2022/05/18 01:50:44;;;;;;;;;;;;;;;;;;5010706;28;1107;-71
2022/05/18 01:53:11;;;;;;;;;;;;;;;;;;5009588;28;1347;-71
2022/05/18 01:55:37;;;;;;;;;;;;;;;;;;5010646;28;1974;-70
2022/05/18 01:58:03;;;;;;;;;;;;;;;;;;5010254;28;902;-71
2022/05/18 02:00:30;;;;;;;;;;;;;;;;;;5014371;28;1480;-72
2022/05/18 02:02:58;;;;;;;;;;;;;;;;;;5010502;28;977;-71
2022/05/18 02:05:24;;;;;;;;;;;;;;;;;;5011228;28;1300;-71
2022/05/18 02:07:51;;;;;;;;;;;;;;;;;;5013944;28;1111;-70
2022/05/18 02:10:17;;;;;;;;;;;;;;;;;;5014219;28;1411;-71
2022/05/18 02:12:43;;;;;;;;;;;;;;;;;;5013999;28;779;-70
2022/05/18 02:15:10;;;;;;;;;;;;;;;;;;5013853;28;1910;-72
2022/05/18 02:17:37;;;;;;;;;;;;;;;;;;5013847;28;953;-71
2022/05/18 02:20:05;;;;;;;;;;;;;;;;;;5013957;28;1076;-72
2022/05/18 02:22:31;;;;;;;;;;;;;;;;;;5013757;28;1001;-71
2022/05/18 02:24:58;;;;;;;;;;;;;;;;;;5013487;28;1376;-70
2022/05/18 02:27:24;;;;;;;;;;;;;;;;;;5013559;28;993;-71
2022/05/18 02:29:50;;;;;;;;;;;;;;;;;;5012484;28;1373;-72
2022/05/18 02:32:16;;;;;;;;;;;;;;;;;;5013718;28;1111;-71
2022/05/18 02:34:43;;;;;;;;;;;;;;;;;;5013577;28;1357;-71
2022/05/18 02:37:10;;;;;;;;;;;;;;;;;;5013082;28;1914;-71
2022/05/18 02:39:36;;;;;;;;;;;;;;;;;;5013610;28;798;-71
2022/05/18 02:42:03;;;;;;;;;;;;;;;;;;5013192;28;1076;-71
2022/05/18 02:44:29;;;;;;;;;;;;;;;;;;5012127;28;1369;-71
2022/05/18 02:46:56;;;;;;;;;;;;;;;;;;5013438;28;857;-72
2022/05/18 02:49:23;;;;;;;;;;;;;;;;;;5013430;28;1111;-70
2022/05/18 02:51:49;;;;;;;;;;;;;;;;;;5013442;28;1068;-71
2022/05/18 02:57:00;;;;;;;;;;;;;;;;;;5012880;28;1914;-71
2022/05/18 02:59:27;;;;;;;;;;;;;;;;;;5013468;28;858;-70
2022/05/18 03:01:53;;;;;;;;;;;;;;;;;;5012883;28;1099;-70
2022/05/18 03:04:20;;;;;;;;;;;;;;;;;;5013095;28;1391;-71
2022/05/18 03:06:46;;;;;;;;;;;;;;;;;;5012947;28;1115;-71
2022/05/18 03:09:12;;;;;;;;;;;;;;;;;;5013247;28;962;-71
2022/05/18 03:11:40;;;;;;;;;;;;;;;;;;5013205;28;1068;-72
2022/05/18 03:14:07;;;;;;;;;;;;;;;;;;5012836;28;1381;-70
2022/05/18 03:16:33;;;;;;;;;;;;;;;;;;5012586;28;1968;-69
2022/05/18 03:18:59;;;;;;;;;;;;;;;;;;5012760;28;1422;-69
2022/05/18 03:24:10;;;;;;;;;;;;;;;;;;5012795;28;1340;-70
2022/05/18 03:26:37;;;;;;;;;;;;;;;;;;5012596;28;1084;-69
2022/05/18 03:29:04;;;;;;;;;;;;;;;;;;5019980;28;2269;-69
2022/05/18 03:31:31;;;;;;;;;;;;;;;;;;5032552;28;1059;-69
2022/05/18 03:33:58;;;;;;;;;;;;;;;;;;5032114;28;1262;-69
2022/05/18 03:36:24;;;;;;;;;;;;;;;;;;5032178;28;1914;-70
2022/05/18 03:38:50;;;;;;;;;;;;;;;;;;5032042;28;945;-69
2022/05/18 03:41:18;;;;;;;;;;;;;;;;;;5032266;28;1143;-69
2022/05/18 03:43:44;;;;;;;;;;;;;;;;;;5031951;28;1401;-69
2022/05/18 03:46:12;;;;;;;;;;;;;;;;;;5031964;28;949;-69
2022/05/18 03:48:38;;;;;;;;;;;;;;;;;;5032148;28;887;-69
2022/05/18 03:51:05;;;;;;;;;;;;;;;;;;5031839;28;1064;-70
2022/05/18 03:53:32;;;;;;;;;;;;;;;;;;5030778;28;1305;-69
2022/05/18 03:55:58;;;;;;;;;;;;;;;;;;5030572;28;1914;-70
2022/05/18 03:58:24;;;;;;;;;;;;;;;;;;5031453;28;1087;-70
2022/05/18 04:00:51;;;;;;;;;;;;;;;;;;5017079;28;1570;-70
2022/05/18 04:03:19;;;;;;;;;;;;;;;;;;5024373;28;1641;-69
2022/05/18 04:05:46;;;;;;;;;;;;;;;;;;5030900;28;1405;-69
2022/05/18 04:08:12;;;;;;;;;;;;;;;;;;5028215;28;1399;-70
2022/05/18 04:10:39;;;;;;;;;;;;;;;;;;5026011;28;1811;-70
2022/05/18 04:13:05;;;;;;;;;;;;;;;;;;5029151;28;1122;-70
2022/05/18 04:15:31;;;;;;;;;;;;;;;;;;5027365;28;1388;-70
2022/05/18 04:17:58;;;;;;;;;;;;;;;;;;5026463;28;1918;-70
2022/05/18 04:20:26;;;;;;;;;;;;;;;;;;5029486;28;954;-70
2022/05/18 04:22:53;;;;;;;;;;;;;;;;;;5012964;28;1396;-71
2022/05/18 04:25:20;;;;;;;;;;;;;;;;;;5009336;28;1408;-69
2022/05/18 04:27:47;;;;;;;;;;;;;;;;;;5028442;28;909;-70
2022/05/18 04:30:13;;;;;;;;;;;;;;;;;;5029841;28;1241;-70
2022/05/18 04:32:40;;;;;;;;;;;;;;;;;;5021276;28;1408;-71
2022/05/18 04:35:08;;;;;;;;;;;;;;;;;;5025336;28;1483;-70
2022/05/18 04:37:35;;;;;;;;;;;;;;;;;;5025588;28;1981;-70
2022/05/18 04:40:02;;;;;;;;;;;;;;;;;;5028503;28;1724;-69
2022/05/18 04:42:28;;;;;;;;;;;;;;;;;;5029125;28;1064;-69
2022/05/18 04:44:54;;;;;;;;;;;;;;;;;;5029002;28;1425;-69
2022/05/18 04:47:20;;;;;;;;;;;;;;;;;;5025482;28;1380;-70
2022/05/18 04:49:47;;;;;;;;;;;;;;;;;;5018126;28;1463;-69
2022/05/18 04:52:14;;;;;;;;;;;;;;;;;;5023310;28;1801;-70
2022/05/18 04:54:41;;;;;;;;;;;;;;;;;;5029366;28;1487;-70
2022/05/18 04:57:07;;;;;;;;;;;;;;;;;;5029462;28;1922;-70
2022/05/18 04:59:33;;;;;;;;;;;;;;;;;;5030292;28;905;-70
2022/05/18 05:02:00;;;;;;;;;;;;;;;;;;5030946;28;981;-70
2022/05/18 05:04:26;;;;;;;;;;;;;;;;;;5030925;28;1310;-70
2022/05/18 05:06:52;;;;;;;;;;;;;;;;;;5029316;28;1135;-70
2022/05/18 05:09:22;;;;;;;;;;;;;;;;;;5030810;28;1127;-70
2022/05/18 05:11:49;;;;;;;;;;;;;;;;;;5030472;28;886;-68
2022/05/18 05:14:15;;;;;;;;;;;;;;;;;;5030490;28;1313;-70
2022/05/18 05:16:42;;;;;;;;;;;;;;;;;;5030220;28;1914;-70
2022/05/18 05:19:08;;;;;;;;;;;;;;;;;;5030985;28;1067;-70
2022/05/18 05:21:35;;;;;;;;;;;;;;;;;;5030910;28;1106;-71
2022/05/18 05:24:02;;;;;;;;;;;;;;;;;;5018165;28;1458;-71
2022/05/18 05:26:28;;;;;;;;;;;;;;;;;;5029934;28;1174;-70
2022/05/18 05:28:55;;;;;;;;;;;;;;;;;;5028472;28;1396;-72
2022/05/18 05:31:21;;;;;;;;;;;;;;;;;;5012755;28;1325;-68
2022/05/18 05:33:48;;;;;;;;;;;;;;;;;;5026415;28;1440;-70
2022/05/18 05:36:14;;;;;;;;;;;;;;;;;;5029600;28;1897;-70
2022/05/18 05:38:40;;;;;;;;;;;;;;;;;;5018757;28;1391;-70
2022/05/18 05:41:06;;;;;;;;;;;;;;;;;;5031724;28;1060;-70
2022/05/18 05:43:32;;;;;;;;;;;;;;;;;;5024119;28;1437;-70
2022/05/18 05:46:00;;;;;;;;;;;;;;;;;;5032898;28;1356;-69
2022/05/18 05:48:27;;;;;;;;;;;;;;;;;;5026884;28;1504;-69
2022/05/18 05:50:54;;;;;;;;;;;;;;;;;;5027295;28;1494;-70
2022/05/18 05:53:20;;;;;;;;;;;;;;;;;;5033964;28;1134;-70
2022/05/18 05:55:46;;;;;;;;;;;;;;;;;;5032192;28;1443;-70
2022/05/18 05:58:12;;;;;;;;;;;;;;;;;;5033405;28;1943;-70
2022/05/18 06:00:38;;;;;;;;;;;;;;;;;;5026562;28;1653;-67
2022/05/18 06:03:06;;;;;;;;;;;;;;;;;;5029026;28;1661;-70
2022/05/18 06:05:32;;;;;;;;;;;;;;;;;;5033882;28;1324;-69
2022/05/18 06:07:58;;;;;;;;;;;;;;;;;;5033129;28;774;-69
2022/05/18 06:10:25;;;;;;;;;;;;;;;;;;5032405;28;1784;-70
2022/05/18 06:12:51;;;;;;;;;;;;;;;;;;5033652;28;1185;-71
2022/05/18 06:15:17;;;;;;;;;;;;;;;;;;5032203;28;1783;-71
2022/05/18 06:17:44;;;;;;;;;;;;;;;;;;5028950;28;1993;-70
2022/05/18 06:20:12;;;;;;;;;;;;;;;;;;5032089;28;1573;-69
2022/05/18 06:22:39;;;;;;;;;;;;;;;;;;5032911;28;1493;-70
2022/05/18 06:25:05;;;;;;;;;;;;;;;;;;5033007;28;1394;-70
2022/05/18 06:27:32;;;;;;;;;;;;;;;;;;5030823;28;1631;-71
2022/05/18 06:29:58;;;;;;;;;;;;;;;;;;5032812;28;1205;-70
2022/05/18 06:32:24;;;;;;;;;;;;;;;;;;5032829;28;1056;-71
2022/05/18 06:34:50;;;;;;;;;;;;;;;;;;5032303;28;1464;-71
2022/05/18 06:37:18;;;;;;;;;;;;;;;;;;5028209;28;1914;-71
2022/05/18 06:39:44;;;;;;;;;;;;;;;;;;5030252;28;1618;-71
2022/05/18 06:42:10;;;;;;;;;;;;;;;;;;5030713;28;1620;-70
2022/05/18 06:44:42;;;;;;;;;;;;;;;;;;5031596;28;1483;-70
2022/05/18 06:47:08;;;;;;;;;;;;;;;;;;5028309;28;1767;-70
2022/05/18 06:49:34;;;;;;;;;;;;;;;;;;5030243;28;1231;-71
2022/05/18 06:52:00;;;;;;;;;;;;;;;;;;5030461;28;1083;-69
2022/05/18 06:54:28;;;;;;;;;;;;;;;;;;5030182;28;1780;-71
2022/05/18 06:56:55;;;;;;;;;;;;;;;;;;5030654;28;1914;-71
2022/05/18 06:59:21;;;;;;;;;;;;;;;;;;5029085;28;1598;-72
2022/05/18 07:01:47;;;;;;;;;;;;;;;;;;5027896;28;1068;-72
2022/05/18 07:04:14;;;;;;;;;;;;;;;;;;5029553;28;1470;-70
2022/05/18 07:06:42;;;;;;;;;;;;;;;;;;5029457;28;1505;-72
2022/05/18 07:09:09;;;;;;;;;;;;;;;;;;5031794;28;1208;-72
2022/05/18 07:11:36;;;;;;;;;;;;;;;;;;5031332;28;1221;-70
2022/05/18 07:14:03;;;;;;;;;;;;;;;;;;5031499;28;1319;-72
2022/05/18 07:16:29;;;;;;;;;;;;;;;;;;5029948;28;1126;-71
2022/05/18 07:18:56;;;;;;;;;;;;;;;;;;5028977;28;1914;-72
2022/05/18 07:21:23;;;;;;;;;;;;;;;;;;5030884;28;1274;-72
2022/05/18 07:23:49;;;;;;;;;;;;;;;;;;5030764;28;1338;-72
2022/05/18 07:26:15;;;;;;;;;;;;;;;;;;5030819;28;964;-72
2022/05/18 07:28:43;;;;;;;;;;;;;;;;;;5027516;28;1791;-72
2022/05/18 07:31:09;;;;;;;;;;;;;;;;;;5031433;28;1197;-72
2022/05/18 07:33:36;;;;;;;;;;;;;;;;;;5028924;28;1771;-72
2022/05/18 07:36:03;;;;;;;;;;;;;;;;;;5031429;28;1051;-72
2022/05/18 07:38:30;;;;;;;;;;;;;;;;;;5030699;28;1986;-71
2022/05/18 07:40:56;;;;;;;;;;;;;;;;;;5029531;28;1295;-71
2022/05/18 07:43:22;;;;;;;;;;;;;;;;;;5031136;28;944;-73
2022/05/18 07:45:50;;;;;;;;;;;;;;;;;;5023082;28;1751;-72
2022/05/18 07:48:17;;;;;;;;;;;;;;;;;;5030801;28;1134;-72
2022/05/18 07:50:43;;;;;;;;;;;;;;;;;;5031009;28;791;-72
2022/05/18 07:53:10;;;;;;;;;;;;;;;;;;5029246;28;1193;-70
2022/05/18 07:55:36;;;;;;;;;;;;;;;;;;5025255;28;1827;-72
2022/05/18 07:58:03;;;;;;;;;;;;;;;;;;5024182;28;1919;-71
2022/05/18 08:00:29;;;;;;;;;;;;;;;;;;5029394;28;1664;-72
2022/05/18 08:02:57;;;;;;;;;;;;;;;;;;5031117;28;1154;-74
2022/05/18 08:05:23;;;;;;;;;;;;;;;;;;5019052;28;1555;-73
2022/05/18 08:07:49;;;;;;;;;;;;;;;;;;5025567;28;1634;-73
2022/05/18 08:15:44;;;;;;;;;;;;;;;;;;5016727;28;1581;-72
2022/05/18 08:18:11;;;;;;;;;;;;;;;;;;5044267;28;1983;-71
2022/05/18 08:20:38;;;;;;;;;;;;;;;;;;5030048;28;1213;-72
2022/05/18 08:23:05;;;;;;;;;;;;;;;;;;5028198;28;1775;-73
2022/05/18 08:25:32;;;;;;;;;;;;;;;;;;5029757;28;1413;-73
2022/05/18 08:27:58;;;;;;;;;;;;;;;;;;5028679;28;1808;-72
2022/05/18 08:30:25;;;;;;;;;;;;;;;;;;5040393;28;1404;-74
2022/05/18 08:32:51;;;;;;;;;;;;;;;;;;5028951;28;1687;-73
2022/05/18 08:35:19;;;;;;;;;;;;;;;;;;5024297;28;1580;-74
2022/05/18 08:37:46;;;;;;;;;;;;;;;;;;5030264;28;1985;-74
2022/05/18 08:40:14;;;;;;;;;;;;;;;;;;5027018;28;1838;-74
2022/05/18 08:42:41;;;;;;;;;;;;;;;;;;5025977;28;1549;-73
2022/05/18 08:45:08;;;;;;;;;;;;;;;;;;5029069;28;1473;-73
2022/05/18 08:47:38;;;;;;;;;;;;;;;;;;5026925;28;1692;-73
2022/05/18 08:50:05;;;;;;;;;;;;;;;;;;5029610;28;1221;-74
2022/05/18 08:52:43;;;;;;;;;;;;;;;;;;5028965;28;1190;-73
2022/05/18 08:55:13;;;;;;;;;;;;;;;;;;5029810;28;1405;-73
2022/05/18 08:57:40;;;;;;;;;;;;;;;;;;5028943;28;1922;-72
2022/05/18 09:00:08;;;;;;;;;;;;;;;;;;5029429;28;1016;-73
2022/05/18 09:02:35;;;;;;;;;;;;;;;;;;5041230;28;1146;-74
2022/05/18 09:05:02;;;;;;;;;;;;;;;;;;5017246;28;1462;-73
2022/05/18 09:07:31;;;;;;;;;;;;;;;;;;5029108;28;1016;-74
2022/05/18 09:10:14;;;;;;;;;;;;;;;;;;5022034;28;1605;-72
2022/05/18 09:12:41;;;;;;;;;;;;;;;;;;5027462;28;1395;-71
2022/05/18 09:15:08;;;;;;;;;;;;;;;;;;5029170;28;1500;-72
2022/05/18 09:17:36;;;;;;;;;;;;;;;;;;5027628;28;1910;-71
2022/05/18 09:20:12;;;;;;;;;;;;;;;;;;5027205;28;1371;-72
2022/05/18 09:22:42;;;;;;;;;;;;;;;;;;5026542;28;1744;-72
2022/05/18 09:25:13;;;;;;;;;;;;;;;;;;5025790;28;1609;-72
2022/05/18 09:27:45;;;;;;;;;;;;;;;;;;5027206;28;1267;-72
2022/05/18 09:30:12;;;;;;;;;;;;;;;;;;5026811;28;1557;-72
2022/05/18 09:32:45;;;;;;;;;;;;;;;;;;5028571;28;1431;-72
2022/05/18 09:35:19;;;;;;;;;;;;;;;;;;5021864;28;1776;-72
2022/05/18 09:37:46;;;;;;;;;;;;;;;;;;5025329;28;1972;-72
2022/05/18 09:40:16;;;;;;;;;;;;;;;;;;5027336;28;1514;-73
2022/05/18 09:42:44;;;;;;;;;;;;;;;;;;5026785;28;1438;-72
2022/05/18 09:45:11;;;;;;;;;;;;;;;;;;5015848;28;1578;-73
2022/05/18 09:47:39;;;;;;;;;;;;;;;;;;5019554;28;1835;-72
2022/05/18 09:50:07;;;;;;;;;;;;;;;;;;5021846;28;1471;-72
2022/05/18 09:52:37;;;;;;;;;;;;;;;;;;5026577;28;1426;-73
2022/05/18 09:55:04;;;;;;;;;;;;;;;;;;5028549;28;1423;-73
2022/05/18 09:57:34;;;;;;;;;;;;;;;;;;5025923;28;1650;-72
2022/05/18 10:00:01;;;;;;;;;;;;;;;;;;5027922;28;1985;-72
2022/05/18 10:07:57;;;;;;;;;;;;;;;;;;5025576;28;1412;-73
2022/05/18 10:10:24;;;;;;;;;;;;;;;;;;5019449;28;1582;-72
2022/05/18 10:12:59;;;;;;;;;;;;;;;;;;5025805;28;1555;-72
2022/05/18 10:15:31;;;;;;;;;;;;;;;;;;5028652;28;1416;-72
2022/05/18 10:17:57;;;;;;;;;;;;;;;;;;5026847;28;1910;-72
2022/05/18 10:20:25;;;;;;;;;;;;;;;;;;5027305;28;1621;-72
2022/05/18 10:22:51;;;;;;;;;;;;;;;;;;5027880;28;1101;-73
2022/05/18 10:25:23;;;;;;;;;;;;;;;;;;5028553;28;1427;-73
2022/05/18 10:27:50;;;;;;;;;;;;;;;;;;5028401;28;1760;-73
2022/05/18 10:30:18;;;;;;;;;;;;;;;;;;5031904;28;1056;-73
2022/05/18 10:32:55;;;;;;;;;;;;;;;;;;5031174;28;1565;-73
2022/05/18 10:35:35;;;;;;;;;;;;;;;;;;5027194;28;1645;-73
2022/05/18 10:38:02;;;;;;;;;;;;;;;;;;5028958;28;1975;-73
2022/05/18 10:40:28;;;;;;;;;;;;;;;;;;5031504;28;1578;-73
2022/05/18 10:42:55;;;;;;;;;;;;;;;;;;5031794;28;1126;-73
2022/05/18 10:45:28;;;;;;;;;;;;;;;;;;5023516;28;1589;-72
2022/05/18 10:47:55;;;;;;;;;;;;;;;;;;5029804;28;1760;-72
2022/05/18 10:50:27;;;;;;;;;;;;;;;;;;5027280;28;1787;-72
2022/05/18 10:52:54;;;;;;;;;;;;;;;;;;5024128;28;1999;-74
2022/05/18 10:55:22;;;;;;;;;;;;;;;;;;5028737;28;1439;-75
2022/05/18 10:57:54;;;;;;;;;;;;;;;;;;5027973;28;1115;-73
2022/05/18 11:00:21;;;;;;;;;;;;;;;;;;5024024;28;1395;-75
2022/05/18 11:02:51;;;;;;;;;;;;;;;;;;5031297;28;1206;-75
2022/05/18 11:05:20;;;;;;;;;;;;;;;;;;5029967;28;1267;-75
2022/05/18 11:07:46;;;;;;;;;;;;;;;;;;5028045;28;1096;-74
2022/05/18 11:10:13;;;;;;;;;;;;;;;;;;5031539;28;969;-75
2022/05/18 11:12:43;;;;;;;;;;;;;;;;;;5031036;28;1170;-74
2022/05/18 11:15:09;;;;;;;;;;;;;;;;;;5029788;28;1570;-75
2022/05/18 11:17:39;;;;;;;;;;;;;;;;;;5031105;28;914;-75
2022/05/18 11:20:09;;;;;;;;;;;;;;;;;;5033016;28;1918;-75
2022/05/18 11:22:37;;;;;;;;;;;;;;;;;;5038214;28;1297;-75
2022/05/18 11:25:07;;;;;;;;;;;;;;;;;;5031379;28;1523;-74
2022/05/18 11:27:34;;;;;;;;;;;;;;;;;;5026725;28;1362;-74
2022/05/18 11:30:04;;;;;;;;;;;;;;;;;;5042651;28;1487;-73
2022/05/18 11:32:33;;;;;;;;;;;;;;;;;;5021462;28;1442;-74
2022/05/18 11:35:17;;;;;;;;;;;;;;;;;;5028653;28;1612;-73
2022/05/18 11:37:52;;;;;;;;;;;;;;;;;;5028225;28;1609;-73
2022/05/18 11:40:22;;;;;;;;;;;;;;;;;;5021243;28;1981;-74
2022/05/18 11:42:51;;;;;;;;;;;;;;;;;;5030785;28;1071;-73
2022/05/18 11:45:19;;;;;;;;;;;;;;;;;;5030916;28;1411;-74
2022/05/18 11:47:51;;;;;;;;;;;;;;;;;;5030831;28;975;-74
2022/05/18 11:50:22;;;;;;;;;;;;;;;;;;5029336;28;1834;-74
2022/05/18 11:52:53;;;;;;;;;;;;;;;;;;5035448;28;1209;-74
2022/05/18 11:55:22;;;;;;;;;;;;;;;;;;5028262;28;1852;-74
2022/05/18 11:57:51;;;;;;;;;;;;;;;;;;5025633;28;1521;-73
2022/05/18 12:00:33;;;;;;;;;;;;;;;;;;5030409;28;1977;-74
2022/05/18 12:03:13;;;;;;;;;;;;;;;;;;5027780;28;929;-72
2022/05/18 12:05:54;;;;;;;;;;;;;;;;;;5024069;28;1479;-73
2022/05/18 12:08:41;;;;;;;;;;;;;;;;;;5028476;28;1420;-74
2022/05/18 12:11:09;;;;;;;;;;;;;;;;;;5007443;28;1306;-74
2022/05/18 12:13:37;;;;;;;;;;;;;;;;;;5030016;28;1431;-73
2022/05/18 12:16:04;;;;;;;;;;;;;;;;;;5028338;28;1920;-73
2022/05/18 12:18:32;;;;;;;;;;;;;;;;;;5029688;28;1914;-75
2022/05/18 12:21:01;;;;;;;;;;;;;;;;;;5026566;28;1912;-74
2022/05/18 12:23:29;;;;;;;;;;;;;;;;;;5021475;28;1853;-75
2022/05/18 12:25:55;;;;;;;;;;;;;;;;;;5027354;28;1655;-74
2022/05/18 12:28:21;;;;;;;;;;;;;;;;;;5027351;28;1940;-74
2022/05/18 12:30:48;;;;;;;;;;;;;;;;;;5025022;28;1704;-73
2022/05/18 12:33:14;;;;;;;;;;;;;;;;;;5025655;28;1987;-74
2022/05/18 12:35:47;;;;;;;;;;;;;;;;;;5023030;28;1462;-74
2022/05/18 12:38:22;;;;;;;;;;;;;;;;;;5026572;28;1666;-74
2022/05/18 12:40:49;;;;;;;;;;;;;;;;;;5029198;28;1914;-74
2022/05/18 12:43:17;;;;;;;;;;;;;;;;;;5029877;28;946;-75
2022/05/18 12:45:44;;;;;;;;;;;;;;;;;;5029415;28;1388;-74
2022/05/18 12:48:18;;;;;;;;;;;;;;;;;;5027028;28;1710;-73
2022/05/18 12:50:51;;;;;;;;;;;;;;;;;;5027142;28;1619;-74
2022/05/18 12:53:21;;;;;;;;;;;;;;;;;;5029286;28;1209;-73
2022/05/18 12:55:54;;;;;;;;;;;;;;;;;;5029260;28;1412;-73
2022/05/18 12:58:28;;;;;;;;;;;;;;;;;;5027286;28;1904;-74
2022/05/18 13:01:00;;;;;;;;;;;;;;;;;;5028679;28;1906;-74
2022/05/18 13:03:38;;;;;;;;;;;;;;;;;;5045215;28;953;-74
2022/05/18 13:06:11;;;;;;;;;;;;;;;;;;5029611;28;1429;-73
2022/05/18 13:08:58;;;;;;;;;;;;;;;;;;5017641;28;1905;-74
2022/05/18 13:11:27;;;;;;;;;;;;;;;;;;5020297;28;1586;-74
2022/05/18 13:14:05;;;;;;;;;;;;;;;;;;5028726;28;1455;-74
2022/05/18 13:16:50;;;;;;;;;;;;;;;;;;5027907;28;1176;-73
2022/05/18 13:19:19;;;;;;;;;;;;;;;;;;5024415;28;2016;-74
2022/05/18 13:21:45;;;;;;;;;;;;;;;;;;5028824;28;1090;-73
2022/05/18 13:24:14;;;;;;;;;;;;;;;;;;5027417;28;1467;-73
2022/05/18 13:26:43;;;;;;;;;;;;;;;;;;5028829;28;1056;-73
2022/05/18 13:29:09;;;;;;;;;;;;;;;;;;5025257;28;1698;-74
2022/05/18 13:31:36;;;;;;;;;;;;;;;;;;5026724;28;1150;-74
2022/05/18 13:34:04;;;;;;;;;;;;;;;;;;5007156;28;1912;-74
2022/05/18 13:36:34;;;;;;;;;;;;;;;;;;5022623;28;2009;-74
2022/05/18 13:39:01;;;;;;;;;;;;;;;;;;5029001;28;1914;-74
2022/05/18 13:41:31;;;;;;;;;;;;;;;;;;5028969;28;1084;-74
2022/05/18 13:43:59;;;;;;;;;;;;;;;;;;5028239;28;1406;-74
2022/05/18 13:46:25;;;;;;;;;;;;;;;;;;5025229;28;1792;-73
2022/05/18 13:48:54;;;;;;;;;;;;;;;;;;5026413;28;1674;-73
2022/05/18 13:51:21;;;;;;;;;;;;;;;;;;5028893;28;1407;-72
2022/05/18 13:53:48;;;;;;;;;;;;;;;;;;5022635;28;1971;-72
2022/05/18 13:56:16;;;;;;;;;;;;;;;;;;5022541;28;1877;-72
2022/05/18 13:58:45;;;;;;;;;;;;;;;;;;5028439;28;1416;-72
2022/05/18 14:01:12;;;;;;;;;;;;;;;;;;5020218;28;1993;-72
2022/05/18 14:03:39;;;;;;;;;;;;;;;;;;5023578;28;1743;-73
2022/05/18 14:06:06;;;;;;;;;;;;;;;;;;5024972;28;1611;-73
2022/05/18 14:08:33;;;;;;;;;;;;;;;;;;5032331;28;1127;-73
2022/05/18 14:11:00;;;;;;;;;;;;;;;;;;5031013;28;1433;-73
2022/05/18 14:13:26;;;;;;;;;;;;;;;;;;5026140;28;1623;-73
2022/05/18 14:15:54;;;;;;;;;;;;;;;;;;5030618;28;1531;-74
2022/05/18 14:18:22;;;;;;;;;;;;;;;;;;5030337;28;1928;-74
2022/05/18 14:20:49;;;;;;;;;;;;;;;;;;5031976;28;1976;-74
2022/05/18 14:23:19;;;;;;;;;;;;;;;;;;5032198;28;1075;-72
2022/05/18 14:25:45;;;;;;;;;;;;;;;;;;5030046;28;1936;-74
2022/05/18 14:28:12;;;;;;;;;;;;;;;;;;5031689;28;1170;-72
2022/05/18 14:30:39;;;;;;;;;;;;;;;;;;5031350;28;1064;-73
2022/05/18 14:33:09;;;;;;;;;;;;;;;;;;5030103;28;1958;-71
2022/05/18 14:35:37;;;;;;;;;;;;;;;;;;5029425;28;1365;-72
2022/05/18 14:38:04;;;;;;;;;;;;;;;;;;5031409;28;1580;-72
2022/05/18 14:40:32;;;;;;;;;;;;;;;;;;5030545;28;1969;-73
2022/05/18 14:42:59;;;;;;;;;;;;;;;;;;5031022;28;1126;-72
2022/05/18 14:45:27;;;;;;;;;;;;;;;;;;5029779;28;2076;-72
2022/05/18 14:47:53;;;;;;;;;;;;;;;;;;5031090;28;898;-72
2022/05/18 14:50:24;;;;;;;;;;;;;;;;;;5029409;28;2090;-73
2022/05/18 14:52:53;;;;;;;;;;;;;;;;;;5031146;28;1112;-72
2022/05/18 14:55:21;;;;;;;;;;;;;;;;;;5031681;28;1393;-73
2022/05/18 14:57:47;;;;;;;;;;;;;;;;;;5029418;28;1718;-72
2022/05/18 15:00:14;;;;;;;;;;;;;;;;;;5023367;28;1918;-73
2022/05/18 15:02:41;;;;;;;;;;;;;;;;;;5029446;28;1505;-72
2022/05/18 15:05:08;;;;;;;;;;;;;;;;;;5031649;28;1312;-73
2022/05/18 15:07:38;;;;;;;;;;;;;;;;;;5028245;28;1902;-72
2022/05/18 15:10:05;;;;;;;;;;;;;;;;;;5031154;28;1246;-72
2022/05/18 15:12:34;;;;;;;;;;;;;;;;;;5030557;28;1142;-71
2022/05/18 15:15:01;;;;;;;;;;;;;;;;;;5027599;28;1971;-72
2022/05/18 15:17:29;;;;;;;;;;;;;;;;;;5028405;28;1843;-72
2022/05/18 15:19:57;;;;;;;;;;;;;;;;;;5029809;28;1981;-73
2022/05/18 15:22:24;;;;;;;;;;;;;;;;;;5028555;28;2004;-74
2022/05/18 15:24:52;;;;;;;;;;;;;;;;;;5030836;28;1413;-73
2022/05/18 15:27:19;;;;;;;;;;;;;;;;;;5029028;28;1568;-73
2022/05/18 15:29:50;;;;;;;;;;;;;;;;;;5026203;28;1693;-72
2022/05/18 15:32:17;;;;;;;;;;;;;;;;;;5023697;28;1757;-72
2022/05/18 15:34:44;;;;;;;;;;;;;;;;;;5026600;28;1615;-72
2022/05/18 15:37:11;;;;;;;;;;;;;;;;;;5029148;28;1192;-72
2022/05/18 15:39:38;;;;;;;;;;;;;;;;;;5030705;28;1922;-71
2022/05/18 15:42:06;;;;;;;;;;;;;;;;;;5027835;28;1730;-70
2022/05/18 15:44:32;;;;;;;;;;;;;;;;;;5030124;28;1421;-70
2022/05/18 15:46:59;;;;;;;;;;;;;;;;;;5030613;28;753;-70
2022/05/18 15:49:26;;;;;;;;;;;;;;;;;;5028360;28;1991;-69
2022/05/18 15:51:54;;;;;;;;;;;;;;;;;;5025697;28;1658;-70
2022/05/18 15:54:23;;;;;;;;;;;;;;;;;;5024907;28;1712;-71
2022/05/18 15:56:50;;;;;;;;;;;;;;;;;;5029822;28;1011;-71
2022/05/18 15:59:17;;;;;;;;;;;;;;;;;;5028474;28;1909;-71
2022/05/18 16:01:43;;;;;;;;;;;;;;;;;;5026677;28;1981;-70
2022/05/18 16:04:09;;;;;;;;;;;;;;;;;;5030329;28;1440;-70
2022/05/18 16:06:36;;;;;;;;;;;;;;;;;;5029645;28;1313;-70
2022/05/18 16:09:02;;;;;;;;;;;;;;;;;;5028439;28;1749;-70
2022/05/18 16:11:30;;;;;;;;;;;;;;;;;;5028562;28;1581;-71
2022/05/18 16:13:56;;;;;;;;;;;;;;;;;;5030455;28;2157;-72
2022/05/18 16:16:24;;;;;;;;;;;;;;;;;;5031068;28;1070;-69
2022/05/18 16:18:50;;;;;;;;;;;;;;;;;;5031582;28;1059;-71
2022/05/18 16:21:17;;;;;;;;;;;;;;;;;;5031427;28;1911;-71
2022/05/18 16:23:44;;;;;;;;;;;;;;;;;;5030300;28;1375;-70
2022/05/18 16:26:11;;;;;;;;;;;;;;;;;;5029915;28;826;-71
2022/05/18 16:28:37;;;;;;;;;;;;;;;;;;5031028;28;1237;-71
2022/05/18 16:31:05;;;;;;;;;;;;;;;;;;5031426;28;1011;-71
2022/05/18 16:33:32;;;;;;;;;;;;;;;;;;5031226;28;1103;-72
2022/05/18 16:36:00;;;;;;;;;;;;;;;;;;5031244;28;1349;-72
2022/05/18 16:38:28;;;;;;;;;;;;;;;;;;5031055;28;1071;-71
2022/05/18 16:40:55;;;;;;;;;;;;;;;;;;5031052;28;1979;-72
2022/05/18 16:43:21;;;;;;;;;;;;;;;;;;5029800;28;1147;-71
2022/05/18 16:45:47;;;;;;;;;;;;;;;;;;5031013;28;1428;-71
2022/05/18 16:48:13;;;;;;;;;;;;;;;;;;5030348;28;1064;-71
2022/05/18 16:50:41;;;;;;;;;;;;;;;;;;5030927;28;1087;-70
2022/05/18 16:53:07;;;;;;;;;;;;;;;;;;5025908;28;2246;-71
2022/05/18 16:55:34;;;;;;;;;;;;;;;;;;5030628;28;1302;-71
2022/05/18 16:58:00;;;;;;;;;;;;;;;;;;5030440;28;1178;-71
2022/05/18 17:00:26;;;;;;;;;;;;;;;;;;5030632;28;1930;-71
2022/05/18 17:02:52;;;;;;;;;;;;;;;;;;5030650;28;834;-70
2022/05/18 17:10:48;;;;;;;;;;;;;;;;;;5030683;28;1110;-70
2022/05/18 17:13:15;;;;;;;;;;;;;;;;;;5029738;28;1411;-71
2022/05/18 17:15:41;;;;;;;;;;;;;;;;;;5025172;28;1510;-71
2022/05/18 17:18:08;;;;;;;;;;;;;;;;;;5025566;28;1463;-71
2022/05/18 17:20:34;;;;;;;;;;;;;;;;;;5029322;28;1918;-72
2022/05/18 17:23:00;;;;;;;;;;;;;;;;;;5030341;28;1060;-72
2022/05/18 17:25:27;;;;;;;;;;;;;;;;;;5030577;28;1302;-71
2022/05/18 17:27:54;;;;;;;;;;;;;;;;;;5028123;28;1763;-71
2022/05/18 17:30:20;;;;;;;;;;;;;;;;;;5030571;28;1217;-72